createdAt,value
2018-10-21T00:01:32.224Z,11.20
2018-10-21T00:04:01.619Z,9.30
2018-10-21T00:06:30.981Z,10.33
2018-10-21T00:09:00.489Z,10.53
2018-10-21T00:11:29.916Z,10.47
2018-10-21T00:13:59.327Z,10.70
2018-10-21T00:16:28.708Z,10.30
2018-10-21T00:18:58.104Z,10.50
2018-10-21T00:21:27.510Z,10.27
2018-10-21T00:23:57.007Z,9.97
2018-10-21T00:26:26.477Z,10.20
2018-10-21T00:28:55.892Z,10.20
2018-10-21T00:31:25.238Z,9.70
2018-10-21T00:33:54.648Z,9.80
2018-10-21T00:36:24.008Z,9.50
2018-10-21T00:38:53.414Z,9.83
2018-10-21T00:41:22.746Z,10.10
2018-10-21T00:43:52.164Z,9.70
2018-10-21T00:46:21.545Z,10.50
2018-10-21T00:48:50.936Z,10.77
2018-10-21T00:51:20.308Z,11.70
2018-10-21T00:53:49.707Z,11.13
2018-10-21T00:56:19.102Z,10.90
2018-10-21T00:58:48.488Z,11.43
2018-10-21T01:01:17.863Z,10.23
2018-10-21T01:03:47.224Z,10.77
2018-10-21T01:06:16.675Z,10.87
2018-10-21T01:08:46.054Z,11.73
2018-10-21T01:11:15.491Z,11.40
2018-10-21T01:13:44.880Z,10.70
2018-10-21T01:16:14.303Z,10.33
2018-10-21T01:18:43.687Z,11.27
2018-10-21T01:21:13.169Z,10.67
2018-10-21T01:23:42.524Z,11.30
2018-10-21T01:26:11.924Z,11.47
2018-10-21T01:28:41.301Z,11.10
2018-10-21T01:31:10.739Z,10.57
2018-10-21T01:33:40.132Z,12.33
2018-10-21T01:36:09.784Z,9.93
2018-10-21T01:38:39.175Z,12.20
2018-10-21T01:41:08.600Z,10.17
2018-10-21T01:43:37.979Z,11.80
2018-10-21T01:46:07.363Z,11.10
2018-10-21T01:48:36.730Z,10.93
2018-10-21T01:51:06.237Z,10.77
2018-10-21T01:53:35.552Z,10.50
2018-10-21T01:56:04.973Z,10.03
2018-10-21T01:58:34.359Z,11.37
2018-10-21T02:01:03.772Z,11.23
2018-10-21T02:03:33.132Z,11.70
2018-10-21T02:06:02.605Z,11.30
2018-10-21T02:08:31.984Z,12.30
2018-10-21T02:11:01.432Z,12.10
2018-10-21T02:13:30.805Z,13.30
2018-10-21T02:16:00.191Z,13.00
2018-10-21T02:18:29.619Z,12.27
2018-10-21T02:20:59.119Z,11.97
2018-10-21T02:23:28.460Z,12.67
2018-10-21T02:25:57.856Z,13.00
2018-10-21T02:28:27.235Z,12.20
2018-10-21T02:30:56.631Z,11.60
2018-10-21T02:33:26.100Z,12.57
2018-10-21T02:35:55.462Z,11.80
2018-10-21T02:38:24.844Z,13.00
2018-10-21T02:41:31.902Z,12.97
2018-10-21T02:44:01.380Z,12.60
2018-10-21T02:46:30.998Z,12.30
2018-10-21T02:49:00.993Z,12.00
2018-10-21T02:51:30.411Z,12.20
2018-10-21T02:53:59.789Z,11.67
2018-10-21T02:56:29.215Z,12.17
2018-10-21T02:58:58.627Z,12.20
2018-10-21T03:01:28.036Z,11.77
2018-10-21T03:03:57.403Z,12.20
2018-10-21T03:06:26.809Z,13.13
2018-10-21T03:08:56.169Z,12.77
2018-10-21T03:11:25.576Z,13.20
2018-10-21T03:13:54.995Z,14.83
2018-10-21T03:16:24.451Z,14.50
2018-10-21T03:18:53.832Z,13.70
2018-10-21T03:21:23.244Z,12.00
2018-10-21T03:23:52.652Z,13.50
2018-10-21T03:26:22.043Z,12.83
2018-10-21T03:28:51.456Z,13.27
2018-10-21T03:31:20.849Z,13.03
2018-10-21T03:33:50.415Z,12.27
2018-10-21T03:36:19.749Z,13.37
2018-10-21T03:38:49.147Z,13.90
2018-10-21T03:41:18.507Z,12.00
2018-10-21T03:43:47.904Z,12.33
2018-10-21T03:46:17.418Z,13.30
2018-10-21T03:48:46.796Z,12.13
2018-10-21T03:51:16.147Z,12.57
2018-10-21T03:53:45.524Z,12.30
2018-10-21T03:56:15.046Z,11.90
2018-10-21T03:58:44.427Z,12.57
2018-10-21T04:01:13.772Z,12.20
2018-10-21T04:03:43.147Z,13.50
2018-10-21T04:06:12.497Z,13.07
2018-10-21T04:08:41.858Z,13.20
2018-10-21T04:11:11.251Z,12.63
2018-10-21T04:13:40.639Z,12.43
2018-10-21T04:16:10.044Z,14.17
2018-10-21T04:18:39.435Z,14.10
2018-10-21T04:21:08.795Z,13.57
2018-10-21T04:23:38.171Z,13.87
2018-10-21T04:26:07.552Z,16.50
2018-10-21T04:28:36.962Z,13.93
2018-10-21T04:31:06.327Z,14.40
2018-10-21T04:33:42.932Z,13.37
2018-10-21T04:36:15.051Z,12.10
2018-10-21T04:38:55.436Z,13.97
2018-10-21T04:41:24.862Z,13.00
2018-10-21T04:43:54.241Z,13.67
2018-10-21T04:46:23.626Z,14.83
2018-10-21T04:48:53.037Z,14.60
2018-10-21T04:51:22.399Z,15.00
2018-10-21T04:53:51.752Z,14.07
2018-10-21T04:56:21.196Z,14.43
2018-10-21T04:58:50.527Z,14.23
2018-10-21T05:01:19.968Z,14.30
2018-10-21T05:03:49.356Z,14.37
2018-10-21T05:06:18.740Z,13.50
2018-10-21T05:08:48.077Z,15.00
2018-10-21T05:11:17.498Z,14.27
2018-10-21T05:13:46.862Z,13.53
2018-10-21T05:16:16.400Z,16.03
2018-10-21T05:18:45.631Z,14.17
2018-10-21T05:21:15.008Z,14.60
2018-10-21T05:23:44.429Z,13.00
2018-10-21T05:26:13.792Z,14.07
2018-10-21T05:28:44.917Z,13.78
2018-10-21T05:31:15.607Z,14.25
2018-10-21T05:33:46.425Z,14.27
2018-10-21T05:36:15.959Z,13.88
2018-10-21T05:38:45.279Z,14.07
2018-10-21T05:41:14.625Z,14.15
2018-10-21T05:43:43.935Z,13.10
2018-10-21T05:46:52.940Z,14.75
2018-10-21T05:49:22.200Z,14.80
2018-10-21T05:51:52.147Z,14.20
2018-10-21T05:54:21.656Z,14.77
2018-10-21T05:56:51.662Z,14.30
2018-10-21T05:59:21.025Z,14.10
2018-10-21T06:01:50.384Z,14.05
2018-10-21T06:04:19.703Z,13.80
2018-10-21T06:06:49.190Z,13.83
2018-10-21T06:09:18.541Z,13.55
2018-10-21T06:11:48.016Z,14.55
2018-10-21T06:14:17.405Z,14.35
2018-10-21T06:16:51.038Z,13.40
2018-10-21T06:19:25.039Z,14.63
2018-10-21T06:21:54.485Z,15.25
2018-10-21T06:24:24.016Z,14.65
2018-10-21T06:26:53.440Z,13.43
2018-10-21T06:29:22.951Z,15.32
2018-10-21T06:31:52.349Z,15.25
2018-10-21T06:34:21.692Z,16.27
2018-10-21T06:36:51.173Z,15.53
2018-10-21T06:39:20.473Z,14.70
2018-10-21T06:41:49.915Z,15.73
2018-10-21T06:44:19.264Z,15.80
2018-10-21T06:46:48.644Z,15.70
2018-10-21T06:49:20.764Z,14.63
2018-10-21T06:51:50.509Z,16.20
2018-10-21T06:54:19.907Z,21.87
2018-10-21T06:56:49.382Z,22.43
2018-10-21T06:59:18.692Z,20.97
2018-10-21T07:01:48.183Z,21.63
2018-10-21T07:04:17.657Z,20.50
2018-10-21T07:06:46.990Z,17.40
2018-10-21T07:09:16.360Z,14.30
2018-10-21T07:11:45.719Z,16.33
2018-10-21T07:14:15.099Z,15.23
2018-10-21T07:16:47.350Z,15.37
2018-10-21T07:19:17.044Z,14.93
2018-10-21T07:21:46.480Z,13.87
2018-10-21T07:24:15.935Z,13.10
2018-10-21T07:26:45.264Z,13.17
2018-10-21T07:29:14.607Z,13.17
2018-10-21T07:31:43.961Z,12.90
2018-10-21T07:34:13.496Z,17.73
2018-10-21T07:36:42.942Z,12.07
2018-10-21T07:39:12.667Z,12.90
2018-10-21T07:41:42.022Z,11.37
2018-10-21T07:44:11.375Z,12.40
2018-10-21T07:46:40.736Z,38.97
2018-10-21T07:49:10.273Z,18.13
2018-10-21T07:51:39.604Z,13.10
2018-10-21T07:54:08.956Z,15.77
2018-10-21T07:56:38.271Z,12.50
2018-10-21T07:59:07.699Z,11.83
2018-10-21T08:01:37.068Z,11.53
2018-10-21T08:04:06.443Z,11.40
2018-10-21T08:06:46.980Z,11.03
2018-10-21T08:09:16.379Z,10.90
2018-10-21T08:11:45.771Z,12.60
2018-10-21T08:14:15.156Z,12.23
2018-10-21T08:16:44.556Z,10.43
2018-10-21T08:19:13.890Z,10.67
2018-10-21T08:21:43.304Z,12.17
2018-10-21T08:24:12.683Z,10.00
2018-10-21T08:26:42.176Z,11.10
2018-10-21T08:29:11.527Z,11.33
2018-10-21T08:31:41.271Z,10.00
2018-10-21T08:34:11.180Z,9.80
2018-10-21T08:36:40.515Z,10.53
2018-10-21T08:39:09.879Z,11.10
2018-10-21T08:41:39.261Z,10.10
2018-10-21T08:44:08.642Z,10.10
2018-10-21T08:46:38.057Z,10.80
2018-10-21T08:49:07.492Z,9.30
2018-10-21T08:51:36.875Z,9.60
2018-10-21T08:54:06.245Z,10.93
2018-10-21T08:56:35.615Z,9.60
2018-10-21T08:59:05.045Z,10.50
2018-10-21T09:01:34.490Z,9.57
2018-10-21T09:04:03.998Z,11.17
2018-10-21T09:06:33.319Z,10.40
2018-10-21T09:09:02.762Z,10.10
2018-10-21T09:11:32.168Z,10.67
2018-10-21T09:14:01.500Z,11.93
2018-10-21T09:16:31.035Z,11.37
2018-10-21T09:19:00.525Z,13.00
2018-10-21T09:21:29.966Z,12.57
2018-10-21T09:23:59.366Z,13.47
2018-10-21T09:26:28.747Z,14.20
2018-10-21T09:28:58.082Z,15.37
2018-10-21T09:31:27.429Z,14.27
2018-10-21T09:33:56.790Z,13.60
2018-10-21T09:36:26.113Z,12.70
2018-10-21T09:38:55.471Z,15.03
2018-10-21T09:41:24.781Z,12.50
2018-10-21T09:43:54.162Z,13.70
2018-10-21T09:46:23.679Z,14.13
2018-10-21T09:48:53.052Z,17.90
2018-10-21T09:51:22.503Z,15.40
2018-10-21T09:53:52.799Z,12.90
2018-10-21T09:56:22.192Z,14.83
2018-10-21T09:58:51.605Z,13.93
2018-10-21T10:01:26.089Z,13.10
2018-10-21T10:03:55.605Z,15.20
2018-10-21T10:06:24.949Z,14.87
2018-10-21T10:08:54.358Z,14.33
2018-10-21T10:11:23.792Z,14.20
2018-10-21T10:13:53.265Z,15.37
2018-10-21T10:16:22.704Z,15.00
2018-10-21T10:18:52.069Z,14.13
2018-10-21T10:21:21.432Z,14.43
2018-10-21T10:23:50.829Z,12.43
2018-10-21T10:26:20.199Z,13.80
2018-10-21T10:28:49.565Z,13.43
2018-10-21T10:31:19.096Z,13.20
2018-10-21T10:33:48.405Z,12.93
2018-10-21T10:36:17.824Z,13.27
2018-10-21T10:38:47.235Z,12.53
2018-10-21T10:41:16.565Z,12.80
2018-10-21T10:43:45.922Z,12.23
2018-10-21T10:46:15.547Z,12.80
2018-10-21T10:48:44.885Z,13.40
2018-10-21T10:51:14.227Z,12.47
2018-10-21T10:53:43.587Z,12.83
2018-10-21T10:56:12.958Z,14.13
2018-10-21T10:58:42.280Z,13.20
2018-10-21T11:01:11.753Z,13.10
2018-10-21T11:03:41.073Z,14.67
2018-10-21T11:06:10.424Z,12.70
2018-10-21T11:08:39.803Z,13.60
2018-10-21T11:11:09.187Z,12.67
2018-10-21T11:13:38.554Z,10.13
2018-10-21T11:16:08.185Z,9.63
2018-10-21T11:18:37.511Z,8.47
2018-10-21T11:21:07.086Z,10.27
2018-10-21T11:23:36.458Z,10.53
2018-10-21T11:26:05.819Z,9.60
2018-10-21T11:28:35.144Z,9.57
2018-10-21T11:31:04.606Z,8.40
2018-10-21T11:33:34.070Z,8.73
2018-10-21T11:36:03.460Z,10.07
2018-10-21T11:38:32.849Z,9.47
2018-10-21T11:41:02.269Z,11.80
2018-10-21T11:43:31.630Z,10.23
2018-10-21T11:46:01.097Z,9.63
2018-10-21T11:48:30.422Z,9.73
2018-10-21T11:50:59.802Z,10.63
2018-10-21T11:53:29.113Z,9.17
2018-10-21T11:55:58.474Z,8.97
2018-10-21T11:58:27.796Z,9.50
2018-10-21T12:00:57.238Z,7.87
2018-10-21T12:03:26.611Z,8.20
2018-10-21T12:05:56.031Z,5.23
2018-10-21T12:08:25.352Z,5.27
2018-10-21T12:10:54.743Z,5.30
2018-10-21T12:13:24.108Z,6.10
2018-10-21T12:15:53.440Z,5.20
2018-10-21T12:18:22.800Z,6.70
2018-10-21T12:20:52.179Z,6.97
2018-10-21T12:23:21.549Z,5.97
2018-10-21T12:25:50.931Z,5.70
2018-10-21T12:28:20.356Z,6.90
2018-10-21T12:30:49.656Z,6.13
2018-10-21T12:33:19.022Z,5.53
2018-10-21T12:35:48.360Z,7.00
2018-10-21T12:38:17.729Z,7.90
2018-10-21T12:40:47.106Z,7.23
2018-10-21T12:43:16.636Z,7.93
2018-10-21T12:45:45.967Z,6.37
2018-10-21T12:48:15.346Z,6.40
2018-10-21T12:50:44.733Z,5.60
2018-10-21T12:53:14.210Z,6.60
2018-10-21T12:55:47.479Z,6.77
2018-10-21T12:58:17.065Z,6.27
2018-10-21T13:00:46.510Z,5.57
2018-10-21T13:03:15.914Z,6.10
2018-10-21T13:05:45.317Z,6.27
2018-10-21T13:08:14.737Z,7.30
2018-10-21T13:10:44.112Z,6.93
2018-10-21T13:13:13.564Z,7.80
2018-10-21T13:15:42.889Z,7.47
2018-10-21T13:18:12.220Z,7.10
2018-10-21T13:20:41.559Z,7.90
2018-10-21T13:23:10.920Z,6.10
2018-10-21T13:25:40.268Z,7.23
2018-10-21T13:28:09.792Z,7.10
2018-10-21T13:30:39.028Z,7.27
2018-10-21T13:33:08.344Z,8.40
2018-10-21T13:35:37.683Z,6.37
2018-10-21T13:38:07.012Z,5.90
2018-10-21T13:40:36.434Z,5.83
2018-10-21T13:43:06.238Z,6.33
2018-10-21T13:45:35.593Z,6.60
2018-10-21T13:48:05.083Z,6.63
2018-10-21T13:50:34.483Z,6.97
2018-10-21T13:53:03.939Z,6.60
2018-10-21T13:55:33.200Z,7.20
2018-10-21T13:58:02.546Z,7.20
2018-10-21T14:00:31.940Z,6.50
2018-10-21T14:03:01.285Z,5.90
2018-10-21T14:05:30.651Z,6.30
2018-10-21T14:08:00.097Z,6.30
2018-10-21T14:10:29.501Z,5.97
2018-10-21T14:12:58.897Z,6.17
2018-10-21T14:15:28.274Z,5.90
2018-10-21T14:17:57.643Z,5.50
2018-10-21T14:20:27.019Z,5.90
2018-10-21T14:22:56.353Z,5.10
2018-10-21T14:25:25.740Z,5.90
2018-10-21T14:27:55.117Z,5.43
2018-10-21T14:30:24.625Z,5.87
2018-10-21T14:32:53.897Z,5.00
2018-10-21T14:35:23.384Z,6.43
2018-10-21T14:37:52.729Z,6.93
2018-10-21T14:40:22.166Z,6.00
2018-10-21T14:42:51.579Z,5.63
2018-10-21T14:45:20.963Z,5.20
2018-10-21T14:47:50.366Z,5.30
2018-10-21T14:50:19.737Z,4.70
2018-10-21T14:52:49.136Z,5.90
2018-10-21T14:55:18.585Z,5.50
2018-10-21T14:57:47.952Z,5.00
2018-10-21T15:00:17.374Z,5.30
2018-10-21T15:02:46.792Z,6.00
2018-10-21T15:05:16.216Z,4.77
2018-10-21T15:07:46.851Z,6.13
2018-10-21T15:10:16.255Z,5.83
2018-10-21T15:12:45.667Z,5.90
2018-10-21T15:15:15.145Z,5.17
2018-10-21T15:17:44.723Z,5.37
2018-10-21T15:20:14.446Z,6.70
2018-10-21T15:22:43.881Z,5.77
2018-10-21T15:25:13.281Z,5.17
2018-10-21T15:27:42.821Z,5.13
2018-10-21T15:30:12.766Z,5.60
2018-10-21T15:32:42.193Z,6.20
2018-10-21T15:35:11.697Z,29.70
2018-10-21T15:37:41.129Z,44.80
2018-10-21T15:40:11.335Z,19.83
2018-10-21T15:42:40.821Z,11.90
2018-10-21T15:45:11.160Z,8.27
2018-10-21T15:47:40.571Z,6.20
2018-10-21T15:50:10.180Z,6.70
2018-10-21T15:52:39.702Z,5.23
2018-10-21T15:55:09.534Z,5.37
2018-10-21T15:57:39.133Z,4.37
2018-10-21T16:00:09.937Z,5.63
2018-10-21T16:02:39.390Z,6.83
2018-10-21T16:05:09.445Z,6.00
2018-10-21T16:07:38.832Z,6.23
2018-10-21T16:10:08.933Z,7.80
2018-10-21T16:12:38.589Z,7.10
2018-10-21T16:15:10.294Z,7.07
2018-10-21T16:17:39.659Z,6.43
2018-10-21T16:20:09.116Z,6.00
2018-10-21T16:22:39.835Z,5.97
2018-10-21T16:25:11.442Z,6.20
2018-10-21T16:27:41.386Z,7.30
2018-10-21T16:30:13.298Z,8.10
2018-10-21T16:32:43.562Z,8.60
2018-10-21T16:35:13.235Z,7.80
2018-10-21T16:37:42.772Z,10.20
2018-10-21T16:40:13.730Z,9.37
2018-10-21T16:42:43.080Z,9.50
2018-10-21T16:45:13.342Z,9.20
2018-10-21T16:47:42.732Z,8.43
2018-10-21T16:50:14.053Z,6.23
2018-10-21T16:52:44.466Z,8.13
2018-10-21T16:55:14.409Z,7.30
2018-10-21T16:57:43.769Z,8.23
2018-10-21T17:00:15.582Z,7.70
2018-10-21T17:02:44.963Z,6.70
2018-10-21T17:05:14.523Z,6.30
2018-10-21T17:07:43.772Z,6.30
2018-10-21T17:10:13.572Z,6.13
2018-10-21T17:12:42.607Z,7.47
2018-10-21T17:15:12.547Z,7.90
2018-10-21T17:17:42.769Z,7.53
2018-10-21T17:20:13.789Z,7.63
2018-10-21T17:22:43.687Z,8.87
2018-10-21T17:25:13.296Z,7.50
2018-10-21T17:27:42.916Z,6.93
2018-10-21T17:30:15.477Z,7.03
2018-10-21T17:32:45.298Z,7.60
2018-10-21T17:35:14.655Z,7.37
2018-10-21T17:37:44.001Z,8.13
2018-10-21T17:40:13.687Z,6.90
2018-10-21T17:42:42.956Z,6.97
2018-10-21T17:45:14.088Z,7.60
2018-10-21T17:47:43.991Z,6.13
2018-10-21T17:50:14.428Z,5.67
2018-10-21T17:52:44.285Z,6.00
2018-10-21T17:55:14.065Z,7.47
2018-10-21T17:57:43.338Z,7.20
2018-10-21T18:00:13.361Z,7.73
2018-10-21T18:02:42.765Z,8.40
2018-10-21T18:05:13.388Z,9.43
2018-10-21T18:07:43.088Z,9.93
2018-10-21T18:10:13.040Z,12.53
2018-10-21T18:12:42.337Z,14.27
2018-10-21T18:15:12.188Z,13.40
2018-10-21T18:17:42.249Z,11.63
2018-10-21T18:20:12.759Z,10.03
2018-10-21T18:22:42.215Z,9.60
2018-10-21T18:25:11.655Z,8.00
2018-10-21T18:27:41.356Z,8.30
2018-10-21T18:30:11.558Z,9.43
2018-10-21T18:32:40.982Z,9.70
2018-10-21T18:35:12.316Z,11.20
2018-10-21T18:37:41.703Z,10.87
2018-10-21T18:40:11.779Z,12.10
2018-10-21T18:42:41.692Z,8.67
2018-10-21T18:45:12.897Z,10.47
2018-10-21T18:47:42.632Z,8.93
2018-10-21T18:50:13.428Z,11.77
2018-10-21T18:52:42.827Z,9.43
2018-10-21T18:55:12.696Z,8.07
2018-10-21T18:57:42.054Z,8.97
2018-10-21T19:00:14.626Z,10.60
2018-10-21T19:02:44.023Z,6.67
2018-10-21T19:05:14.034Z,6.53
2018-10-21T19:07:43.440Z,6.90
2018-10-21T19:10:14.212Z,6.33
2018-10-21T19:12:43.585Z,7.00
2018-10-21T19:15:13.580Z,6.97
2018-10-21T19:17:43.063Z,9.10
2018-10-21T19:20:14.735Z,10.70
2018-10-21T19:22:44.205Z,13.73
2018-10-21T19:25:14.926Z,13.10
2018-10-21T19:27:45.068Z,12.20
2018-10-21T19:30:14.902Z,12.57
2018-10-21T19:32:44.546Z,12.60
2018-10-21T19:35:14.867Z,14.87
2018-10-21T19:37:44.270Z,16.30
2018-10-21T19:40:14.918Z,18.30
2018-10-21T19:42:44.711Z,15.83
2018-10-21T19:45:16.123Z,14.80
2018-10-21T19:47:45.692Z,12.70
2018-10-21T19:50:15.941Z,8.50
2018-10-21T19:52:45.625Z,10.40
2018-10-21T19:55:15.046Z,9.30
2018-10-21T19:57:44.421Z,10.37
2018-10-21T20:00:16.162Z,10.40
2018-10-21T20:02:46.028Z,9.90
2018-10-21T20:05:15.557Z,10.40
2018-10-21T20:07:45.050Z,10.10
2018-10-21T20:10:15.408Z,9.50
2018-10-21T20:13:47.333Z,9.60
2018-10-21T20:16:16.836Z,8.43
2018-10-21T20:18:46.189Z,7.30
2018-10-21T20:21:15.594Z,8.70
2018-10-21T20:23:45.036Z,7.70
2018-10-21T20:26:14.407Z,8.60
2018-10-21T20:28:43.763Z,8.33
2018-10-21T20:31:13.248Z,9.00
2018-10-21T20:33:42.863Z,9.73
2018-10-21T20:36:12.275Z,10.93
2018-10-21T20:38:41.943Z,10.80
2018-10-21T20:41:11.394Z,13.20
2018-10-21T20:43:40.838Z,19.37
2018-10-21T20:46:10.299Z,15.03
2018-10-21T20:48:39.664Z,16.20
2018-10-21T20:51:09.053Z,11.57
2018-10-21T20:53:38.411Z,11.17
2018-10-21T20:56:07.847Z,15.87
2018-10-21T20:58:37.195Z,22.60
2018-10-21T21:01:06.803Z,12.70
2018-10-21T21:03:36.175Z,17.93
2018-10-21T21:06:05.818Z,12.23
2018-10-21T21:08:35.194Z,11.90
2018-10-21T21:11:04.711Z,12.67
2018-10-21T21:13:34.212Z,32.17
2018-10-21T21:16:03.667Z,13.10
2018-10-21T21:18:33.023Z,12.47
2018-10-21T21:21:02.387Z,13.10
2018-10-21T21:23:31.784Z,10.50
2018-10-21T21:26:01.205Z,12.20
2018-10-21T21:28:30.588Z,12.10
2018-10-21T21:30:59.996Z,12.07
2018-10-21T21:33:29.363Z,13.10
2018-10-21T21:35:58.893Z,10.90
2018-10-21T21:38:28.295Z,10.60
2018-10-21T21:40:57.743Z,10.80
2018-10-21T21:43:27.118Z,10.40
2018-10-21T21:45:56.744Z,10.30
2018-10-21T21:48:26.104Z,16.97
2018-10-21T21:50:55.512Z,11.20
2018-10-21T21:53:24.893Z,9.70
2018-10-21T21:55:54.299Z,12.00
2018-10-21T21:58:23.698Z,11.60
2018-10-21T22:00:53.123Z,15.05
2018-10-21T22:03:22.540Z,12.65
2018-10-21T22:05:51.890Z,12.90
2018-10-21T22:08:21.354Z,13.20
2018-10-21T22:10:50.752Z,13.20
2018-10-21T22:13:20.139Z,12.05
2018-10-21T22:15:49.506Z,13.20
2018-10-21T22:18:18.933Z,25.27
2018-10-21T22:20:48.300Z,12.65
2018-10-21T22:23:17.683Z,28.65
2018-10-21T22:25:47.075Z,10.58
2018-10-21T22:28:16.534Z,42.45
2018-10-21T22:30:45.868Z,9.75
2018-10-21T22:33:15.262Z,9.98
2018-10-21T22:35:44.599Z,9.68
2018-10-21T22:38:13.971Z,10.75
2018-10-21T22:40:43.363Z,12.60
2018-10-21T22:43:12.764Z,9.75
2018-10-21T22:45:42.101Z,9.05
2018-10-21T22:48:11.609Z,9.55
2018-10-21T22:50:40.891Z,9.28
2018-10-21T22:53:10.277Z,11.78
2018-10-21T22:55:39.844Z,11.75
2018-10-21T22:58:09.507Z,9.75
2018-10-21T23:00:38.815Z,20.82
2018-10-21T23:03:08.240Z,9.63
2018-10-21T23:05:37.610Z,18.60
2018-10-21T23:08:07.003Z,13.80
2018-10-21T23:10:36.410Z,13.05
2018-10-21T23:13:05.862Z,21.82
2018-10-21T23:15:35.223Z,14.58
2018-10-21T23:18:04.696Z,9.58
2018-10-21T23:20:34.112Z,12.43
2018-10-21T23:23:03.500Z,20.30
2018-10-21T23:25:32.907Z,8.83
2018-10-21T23:28:02.329Z,10.93
2018-10-21T23:30:31.775Z,9.45
2018-10-21T23:33:01.160Z,11.05
2018-10-21T23:35:30.545Z,10.05
2018-10-21T23:37:59.930Z,10.08
2018-10-21T23:40:29.333Z,8.98
2018-10-21T23:42:58.671Z,10.40
2018-10-21T23:45:28.027Z,20.12
2018-10-21T23:47:57.472Z,9.33
2018-10-21T23:50:26.861Z,9.30
2018-10-21T23:52:56.198Z,8.95
2018-10-21T23:55:25.602Z,9.63
2018-10-21T23:57:55.027Z,9.53
